createdAt,value
2017-12-29T00:00:22.060Z,10.61
2017-12-29T00:02:50.726Z,10.57
2017-12-29T00:05:19.432Z,10.66
2017-12-29T00:07:48.118Z,10.80
2017-12-29T00:10:17.654Z,10.74
2017-12-29T00:12:46.300Z,10.80
2017-12-29T00:15:14.892Z,10.93
2017-12-29T00:17:43.512Z,11.08
2017-12-29T00:20:13.068Z,10.88
2017-12-29T00:22:41.695Z,10.86
2017-12-29T00:25:10.388Z,10.69
2017-12-29T00:27:40.208Z,10.59
2017-12-29T00:30:09.668Z,10.71
2017-12-29T00:32:38.353Z,11.11
2017-12-29T00:35:07.237Z,11.05
2017-12-29T00:37:36.339Z,11.15
2017-12-29T00:40:05.020Z,11.11
2017-12-29T00:42:33.866Z,10.99
2017-12-29T00:45:02.559Z,10.96
2017-12-29T00:47:31.280Z,11.05
2017-12-29T00:50:00.175Z,10.86
2017-12-29T00:52:28.762Z,10.88
2017-12-29T00:54:57.447Z,10.66
2017-12-29T00:57:26.273Z,10.26
2017-12-29T00:59:55.740Z,10.12
2017-12-29T01:02:24.426Z,10.17
2017-12-29T01:04:54.177Z,10.36
2017-12-29T01:07:23.487Z,10.79
2017-12-29T01:09:52.217Z,10.54
2017-12-29T01:12:21.013Z,10.32
2017-12-29T01:14:49.698Z,10.27
2017-12-29T01:17:18.384Z,10.25
2017-12-29T01:19:47.109Z,10.44
2017-12-29T01:22:16.567Z,10.29
2017-12-29T01:24:45.258Z,10.53
2017-12-29T01:27:14.135Z,10.54
2017-12-29T01:29:42.834Z,10.28
2017-12-29T01:32:11.518Z,10.41
2017-12-29T01:34:40.303Z,10.52
2017-12-29T01:37:08.891Z,10.61
2017-12-29T01:39:37.477Z,10.68
2017-12-29T01:42:06.262Z,10.86
2017-12-29T01:44:34.948Z,10.89
2017-12-29T01:47:03.535Z,10.88
2017-12-29T01:49:32.319Z,11.00
2017-12-29T01:52:01.005Z,10.78
2017-12-29T01:54:29.691Z,10.96
2017-12-29T01:56:58.683Z,10.86
2017-12-29T01:59:27.321Z,10.95
2017-12-29T02:01:56.768Z,10.86
2017-12-29T02:04:25.453Z,10.86
2017-12-29T02:06:54.041Z,10.99
2017-12-29T02:09:23.549Z,10.91
2017-12-29T02:11:52.433Z,10.92
2017-12-29T02:14:21.081Z,11.06
2017-12-29T02:16:49.747Z,11.19
2017-12-29T02:19:19.215Z,11.34
2017-12-29T02:21:47.888Z,11.30
2017-12-29T02:24:16.572Z,11.69
2017-12-29T02:26:45.266Z,11.96
2017-12-29T02:29:13.957Z,11.84
2017-12-29T02:31:42.576Z,11.32
2017-12-29T02:34:12.043Z,10.78
2017-12-29T02:36:40.629Z,10.55
2017-12-29T02:39:09.279Z,10.95
2017-12-29T02:41:38.307Z,10.78
2017-12-29T02:44:06.941Z,10.34
2017-12-29T02:46:36.636Z,10.04
2017-12-29T02:49:06.406Z,9.90
2017-12-29T02:51:35.097Z,10.27
2017-12-29T02:54:03.678Z,10.07
2017-12-29T02:56:32.408Z,9.92
2017-12-29T02:59:01.764Z,9.61
2017-12-29T03:01:30.344Z,9.23
2017-12-29T03:03:59.134Z,9.00
2017-12-29T03:06:27.876Z,9.47
2017-12-29T03:08:57.637Z,9.03
2017-12-29T03:11:27.343Z,8.85
2017-12-29T03:13:56.009Z,8.73
2017-12-29T03:16:24.715Z,8.63
2017-12-29T03:18:53.669Z,8.41
2017-12-29T03:21:22.393Z,8.36
2017-12-29T03:23:51.029Z,8.69
2017-12-29T03:26:20.378Z,8.56
2017-12-29T03:28:49.064Z,8.91
2017-12-29T03:31:17.709Z,8.84
2017-12-29T03:33:47.568Z,8.56
2017-12-29T03:36:16.193Z,8.09
2017-12-29T03:38:46.010Z,8.32
2017-12-29T03:41:15.532Z,8.54
2017-12-29T03:43:44.252Z,8.54
2017-12-29T03:46:12.890Z,8.75
2017-12-29T03:48:42.433Z,8.79
2017-12-29T03:51:11.033Z,8.80
2017-12-29T03:53:39.664Z,8.93
2017-12-29T03:56:09.215Z,8.88
2017-12-29T03:58:37.902Z,9.07
2017-12-29T04:01:06.548Z,8.91
2017-12-29T04:03:35.274Z,8.99
2017-12-29T04:06:04.016Z,9.08
2017-12-29T04:08:33.370Z,9.02
2017-12-29T04:11:02.252Z,9.03
2017-12-29T04:13:30.939Z,9.12
2017-12-29T04:15:59.604Z,9.00
2017-12-29T04:18:28.420Z,9.07
2017-12-29T04:20:56.956Z,9.25
2017-12-29T04:23:25.682Z,9.32
2017-12-29T04:25:54.884Z,9.37
2017-12-29T04:28:23.876Z,9.42
2017-12-29T04:30:52.660Z,9.54
2017-12-29T04:33:21.629Z,9.48
2017-12-29T04:35:50.339Z,9.62
2017-12-29T04:38:18.991Z,9.87
2017-12-29T04:40:47.711Z,9.84
2017-12-29T04:43:16.376Z,9.77
2017-12-29T04:45:45.082Z,9.70
2017-12-29T04:48:13.767Z,9.41
2017-12-29T04:50:42.355Z,9.69
2017-12-29T04:53:11.041Z,9.63
2017-12-29T04:55:39.924Z,9.55
2017-12-29T04:58:08.621Z,9.56
2017-12-29T05:00:37.248Z,9.36
2017-12-29T05:03:06.770Z,9.34
2017-12-29T05:05:35.491Z,9.54
2017-12-29T05:08:04.176Z,9.49
2017-12-29T05:10:32.860Z,9.54
2017-12-29T05:13:01.548Z,9.52
2017-12-29T05:15:30.135Z,9.42
2017-12-29T05:17:58.821Z,9.45
2017-12-29T05:20:27.407Z,9.42
2017-12-29T05:22:56.094Z,9.50
2017-12-29T05:25:24.878Z,9.45
2017-12-29T05:27:53.442Z,9.39
2017-12-29T05:30:22.151Z,9.43
2017-12-29T05:32:51.283Z,9.56
2017-12-29T05:35:20.750Z,9.54
2017-12-29T05:37:49.391Z,9.54
2017-12-29T05:40:18.934Z,9.76
2017-12-29T05:42:47.622Z,9.79
2017-12-29T05:45:16.248Z,9.68
2017-12-29T05:47:46.637Z,9.62
2017-12-29T05:50:15.323Z,9.38
2017-12-29T05:52:44.009Z,9.73
2017-12-29T05:55:13.170Z,9.75
2017-12-29T05:57:41.885Z,9.78
2017-12-29T06:00:10.680Z,9.72
2017-12-29T06:02:39.373Z,10.02
2017-12-29T06:05:08.037Z,10.12
2017-12-29T06:07:36.738Z,10.28
2017-12-29T06:10:05.523Z,9.85
2017-12-29T06:12:34.143Z,9.67
2017-12-29T06:15:03.608Z,10.11
2017-12-29T06:17:32.500Z,10.57
2017-12-29T06:20:01.188Z,10.17
2017-12-29T06:22:29.816Z,10.09
2017-12-29T06:24:59.480Z,10.25
2017-12-29T06:27:28.100Z,10.37
2017-12-29T06:29:57.565Z,10.45
2017-12-29T06:32:26.360Z,10.48
2017-12-29T06:34:55.857Z,10.22
2017-12-29T06:37:24.498Z,10.12
2017-12-29T06:39:54.360Z,10.27
2017-12-29T06:42:22.936Z,10.02
2017-12-29T06:44:51.632Z,10.48
2017-12-29T06:47:20.471Z,10.32
2017-12-29T06:49:49.926Z,10.50
2017-12-29T06:52:18.612Z,10.99
2017-12-29T06:54:47.397Z,10.79
2017-12-29T06:57:16.905Z,10.42
2017-12-29T06:59:45.590Z,10.46
2017-12-29T07:02:14.427Z,9.66
2017-12-29T07:04:43.763Z,9.75
2017-12-29T07:07:12.461Z,9.69
2017-12-29T07:09:41.354Z,9.94
2017-12-29T07:12:09.998Z,10.05
2017-12-29T07:14:38.726Z,10.09
2017-12-29T07:17:07.509Z,9.69
2017-12-29T07:19:36.097Z,9.47
2017-12-29T07:22:04.785Z,9.51
2017-12-29T07:24:33.875Z,9.61
2017-12-29T07:27:02.507Z,9.36
2017-12-29T07:29:31.970Z,9.51
2017-12-29T07:32:00.647Z,9.47
2017-12-29T07:34:29.186Z,9.47
2017-12-29T07:36:57.918Z,9.75
2017-12-29T07:39:27.525Z,9.74
2017-12-29T07:41:56.163Z,9.79
2017-12-29T07:44:25.500Z,9.89
2017-12-29T07:46:54.295Z,9.95
2017-12-29T07:49:22.993Z,10.27
2017-12-29T07:51:51.679Z,9.92
2017-12-29T07:54:20.465Z,10.07
2017-12-29T07:56:49.151Z,10.41
2017-12-29T07:59:17.788Z,10.16
2017-12-29T08:01:47.144Z,10.25
2017-12-29T08:04:15.774Z,10.03
2017-12-29T08:06:45.222Z,10.39
2017-12-29T08:09:14.005Z,10.01
2017-12-29T08:11:42.701Z,10.16
2017-12-29T08:14:11.387Z,10.39
2017-12-29T08:16:40.380Z,10.41
2017-12-29T08:19:09.005Z,10.11
2017-12-29T08:21:37.751Z,9.65
2017-12-29T08:24:06.689Z,10.18
2017-12-29T08:26:36.144Z,9.96
2017-12-29T08:31:33.261Z,10.53
2017-12-29T08:34:01.994Z,10.80
2017-12-29T08:36:30.622Z,10.76
2017-12-29T08:39:00.439Z,10.66
2017-12-29T08:41:29.894Z,10.19
2017-12-29T08:43:58.579Z,9.85
2017-12-29T08:46:27.418Z,9.89
2017-12-29T08:48:56.872Z,9.78
2017-12-29T08:51:25.504Z,9.79
2017-12-29T08:53:55.121Z,10.06
2017-12-29T08:56:23.715Z,9.96
2017-12-29T08:58:52.440Z,9.90
2017-12-29T09:01:21.123Z,9.87
2017-12-29T09:03:49.811Z,9.80
2017-12-29T09:06:18.393Z,10.16
2017-12-29T09:08:47.325Z,10.19
2017-12-29T09:11:16.790Z,10.22
2017-12-29T09:13:45.415Z,10.33
2017-12-29T09:16:14.880Z,10.44
2017-12-29T09:18:43.559Z,10.57
2017-12-29T09:21:12.245Z,10.64
2017-12-29T09:23:40.932Z,10.99
2017-12-29T09:26:09.526Z,11.21
2017-12-29T09:28:38.302Z,11.24
2017-12-29T09:31:07.296Z,11.58
2017-12-29T09:33:35.933Z,11.64
2017-12-29T09:36:05.349Z,11.67
2017-12-29T09:38:34.076Z,11.54
2017-12-29T09:41:02.709Z,11.32
2017-12-29T09:43:32.162Z,11.55
2017-12-29T09:46:01.155Z,11.69
2017-12-29T09:48:29.731Z,11.66
2017-12-29T09:50:58.316Z,11.56
2017-12-29T09:53:27.276Z,11.96
2017-12-29T09:55:55.944Z,12.00
2017-12-29T09:58:25.413Z,11.72
2017-12-29T10:00:54.290Z,11.86
2017-12-29T10:03:22.832Z,11.86
2017-12-29T10:05:52.174Z,12.09
2017-12-29T10:08:20.772Z,12.41
2017-12-29T10:10:49.449Z,12.46
2017-12-29T10:13:18.025Z,12.78
2017-12-29T10:15:46.809Z,12.78
2017-12-29T10:18:15.507Z,12.43
2017-12-29T10:20:44.104Z,12.39
2017-12-29T10:23:13.043Z,12.63
2017-12-29T10:25:42.486Z,12.72
2017-12-29T10:28:11.172Z,12.98
2017-12-29T10:30:39.957Z,13.08
2017-12-29T10:33:08.642Z,13.06
2017-12-29T10:35:37.224Z,12.88
2017-12-29T10:38:05.926Z,13.06
2017-12-29T10:40:34.799Z,12.91
2017-12-29T10:43:03.435Z,13.10
2017-12-29T10:45:33.201Z,13.25
2017-12-29T10:48:01.888Z,13.44
2017-12-29T10:50:30.511Z,13.15
2017-12-29T10:53:00.233Z,13.06
2017-12-29T10:55:29.677Z,13.18
2017-12-29T10:57:58.368Z,12.44
2017-12-29T11:00:27.212Z,12.68
2017-12-29T11:02:56.660Z,13.13
2017-12-29T11:05:25.322Z,13.66
2017-12-29T11:07:54.087Z,13.65
2017-12-29T11:10:23.538Z,13.92
2017-12-29T11:12:52.177Z,14.03
2017-12-29T11:15:21.624Z,14.24
2017-12-29T11:17:51.131Z,14.49
2017-12-29T11:20:19.708Z,14.89
2017-12-29T11:22:48.448Z,15.97
2017-12-29T11:25:17.866Z,16.28
2017-12-29T11:27:46.587Z,15.71
2017-12-29T11:30:15.271Z,15.56
2017-12-29T11:32:43.959Z,15.76
2017-12-29T11:35:12.648Z,15.49
2017-12-29T11:37:41.481Z,15.30
2017-12-29T11:40:10.838Z,14.93
2017-12-29T11:42:39.467Z,15.02
2017-12-29T11:45:09.235Z,15.27
2017-12-29T11:47:37.917Z,15.84
2017-12-29T11:50:06.546Z,16.23
2017-12-29T11:52:36.164Z,16.35
2017-12-29T11:55:05.626Z,16.41
2017-12-29T11:57:34.297Z,16.15
2017-12-29T12:00:03.187Z,15.97
2017-12-29T12:02:31.875Z,15.77
2017-12-29T12:05:00.561Z,16.06
2017-12-29T12:07:29.343Z,16.52
2017-12-29T12:09:58.044Z,15.99
2017-12-29T12:12:26.680Z,15.62
2017-12-29T12:14:55.610Z,15.20
2017-12-29T12:17:24.245Z,15.16
2017-12-29T12:19:53.711Z,15.13
2017-12-29T12:22:22.798Z,15.77
2017-12-29T12:24:51.376Z,16.47
2017-12-29T12:27:20.070Z,16.91
2017-12-29T12:29:48.855Z,16.26
2017-12-29T12:32:17.431Z,15.32
2017-12-29T12:34:46.127Z,15.48
2017-12-29T12:37:14.816Z,14.95
2017-12-29T12:39:43.453Z,15.07
2017-12-29T12:42:12.899Z,14.87
2017-12-29T12:44:41.683Z,14.78
2017-12-29T12:47:10.271Z,14.80
2017-12-29T12:49:38.956Z,15.03
2017-12-29T12:52:07.744Z,15.16
2017-12-29T12:54:36.389Z,15.03
2017-12-29T12:57:05.013Z,14.89
2017-12-29T12:59:33.800Z,15.48
2017-12-29T13:02:02.592Z,15.57
2017-12-29T13:04:31.168Z,15.21
2017-12-29T13:07:00.065Z,15.42
2017-12-29T13:09:28.750Z,15.25
2017-12-29T13:11:57.391Z,15.58
2017-12-29T13:14:26.384Z,15.44
2017-12-29T13:16:55.114Z,15.09
2017-12-29T13:19:23.800Z,14.89
2017-12-29T13:21:52.584Z,14.50
2017-12-29T13:24:21.233Z,14.39
2017-12-29T13:26:49.956Z,14.09
2017-12-29T13:29:18.651Z,14.13
2017-12-29T13:31:47.327Z,14.11
2017-12-29T13:34:15.913Z,14.09
2017-12-29T13:36:44.516Z,14.23
2017-12-29T13:39:13.187Z,14.05
2017-12-29T13:41:41.873Z,14.12
2017-12-29T13:44:10.658Z,14.03
2017-12-29T13:46:39.236Z,13.70
2017-12-29T13:49:07.908Z,13.37
2017-12-29T13:51:36.655Z,13.05
2017-12-29T13:54:06.017Z,13.07
2017-12-29T13:56:34.922Z,12.91
2017-12-29T13:59:04.359Z,12.66
2017-12-29T14:01:33.900Z,12.50
2017-12-29T14:04:02.460Z,12.51
2017-12-29T14:06:31.187Z,12.39
2017-12-29T14:08:59.827Z,12.52
2017-12-29T14:11:29.292Z,12.52
2017-12-29T14:13:58.438Z,12.43
2017-12-29T14:16:27.160Z,12.62
2017-12-29T14:18:55.736Z,12.65
2017-12-29T14:21:24.694Z,12.67
2017-12-29T14:23:53.364Z,12.77
2017-12-29T14:26:22.824Z,12.90
2017-12-29T14:28:51.548Z,12.76
2017-12-29T14:31:20.910Z,12.76
2017-12-29T14:33:50.418Z,12.69
2017-12-29T14:36:20.077Z,12.35
2017-12-29T14:38:49.523Z,12.00
2017-12-29T14:41:18.162Z,11.87
2017-12-29T14:43:47.717Z,11.84
2017-12-29T14:46:16.350Z,11.59
2017-12-29T14:48:45.766Z,11.47
2017-12-29T14:51:14.856Z,11.57
2017-12-29T14:53:44.195Z,11.34
2017-12-29T14:56:12.841Z,11.19
2017-12-29T14:58:42.539Z,11.02
2017-12-29T15:01:11.996Z,10.94
2017-12-29T15:03:40.649Z,10.93
2017-12-29T15:06:09.517Z,10.76
2017-12-29T15:08:38.976Z,11.10
2017-12-29T15:11:07.561Z,11.11
2017-12-29T15:13:36.555Z,11.15
2017-12-29T15:16:05.241Z,11.01
2017-12-29T15:18:33.881Z,10.71
2017-12-29T15:21:03.474Z,10.95
2017-12-29T15:23:32.933Z,10.85
2017-12-29T15:26:01.585Z,10.75
2017-12-29T15:28:30.580Z,10.66
2017-12-29T15:30:59.297Z,10.77
2017-12-29T15:33:27.964Z,10.74
2017-12-29T15:35:56.976Z,10.78
2017-12-29T15:38:25.662Z,10.78
2017-12-29T15:40:57.014Z,10.84
2017-12-29T15:43:25.900Z,10.98
2017-12-29T15:45:54.549Z,10.92
2017-12-29T15:48:23.279Z,11.37
2017-12-29T15:50:52.313Z,11.57
2017-12-29T15:53:21.770Z,11.58
2017-12-29T15:55:50.456Z,11.50
2017-12-29T15:58:19.145Z,11.43
2017-12-29T16:00:48.757Z,11.41
2017-12-29T16:03:17.435Z,11.34
2017-12-29T16:05:46.331Z,11.48
2017-12-29T16:08:15.016Z,11.29
2017-12-29T16:10:43.596Z,11.36
2017-12-29T16:13:12.450Z,11.22
2017-12-29T16:15:41.172Z,11.10
2017-12-29T16:18:09.857Z,11.19
2017-12-29T16:20:38.652Z,11.31
2017-12-29T16:23:07.338Z,11.10
2017-12-29T16:25:36.124Z,10.97
2017-12-29T16:28:05.056Z,10.96
2017-12-29T16:30:34.516Z,10.73
2017-12-29T16:33:03.201Z,10.56
2017-12-29T16:35:32.036Z,10.41
2017-12-29T16:38:01.400Z,10.41
2017-12-29T16:40:30.181Z,10.37
2017-12-29T16:43:33.069Z,10.54
2017-12-29T16:46:01.760Z,10.33
2017-12-29T16:48:30.644Z,10.73
2017-12-29T16:50:59.236Z,10.63
2017-12-29T16:53:27.858Z,9.98
2017-12-29T16:55:57.577Z,9.78
2017-12-29T16:58:26.309Z,9.56
2017-12-29T17:00:55.035Z,9.56
2017-12-29T17:03:24.755Z,9.63
2017-12-29T17:05:54.117Z,9.52
2017-12-29T17:08:22.815Z,9.25
2017-12-29T17:10:51.888Z,9.16
2017-12-29T17:13:20.527Z,9.07
2017-12-29T17:15:49.844Z,9.10
2017-12-29T17:18:18.737Z,8.97
2017-12-29T17:20:47.455Z,8.94
2017-12-29T17:23:16.139Z,8.89
2017-12-29T17:25:45.133Z,8.89
2017-12-29T17:28:13.784Z,8.99
2017-12-29T17:30:42.504Z,8.93
2017-12-29T17:33:11.388Z,8.95
2017-12-29T17:35:40.083Z,9.03
2017-12-29T17:38:08.726Z,8.95
2017-12-29T17:40:37.478Z,9.00
2017-12-29T17:43:06.916Z,9.03
2017-12-29T17:45:35.540Z,9.01
2017-12-29T17:48:16.826Z,9.23
2017-12-29T17:50:50.846Z,9.14
2017-12-29T17:53:19.617Z,9.09
2017-12-29T17:55:48.309Z,9.05
2017-12-29T17:58:16.943Z,9.36
2017-12-29T18:00:46.639Z,8.90
2017-12-29T18:03:16.100Z,8.50
2017-12-29T18:05:44.750Z,8.85
2017-12-29T18:08:13.581Z,8.72
2017-12-29T18:10:42.266Z,8.65
2017-12-29T18:13:10.900Z,8.62
2017-12-29T18:15:40.352Z,8.59
2017-12-29T18:18:09.039Z,8.64
2017-12-29T18:20:37.685Z,8.68
2017-12-29T18:23:06.677Z,8.55
2017-12-29T18:25:35.403Z,8.49
2017-12-29T18:28:04.659Z,8.53
2017-12-29T18:30:34.518Z,8.60
2017-12-29T18:33:03.204Z,8.62
2017-12-29T18:35:31.890Z,8.53
2017-12-29T18:38:00.631Z,8.57
2017-12-29T18:40:29.361Z,8.38
2017-12-29T18:42:58.046Z,8.41
2017-12-29T18:45:26.830Z,8.34
2017-12-29T18:47:55.477Z,8.37
2017-12-29T18:50:24.202Z,8.44
2017-12-29T18:52:52.888Z,8.59
2017-12-29T18:55:21.574Z,8.55
2017-12-29T18:57:50.223Z,8.69
2017-12-29T19:00:18.945Z,8.69
2017-12-29T19:02:47.610Z,8.66
2017-12-29T19:05:16.317Z,8.59
2017-12-29T19:07:45.310Z,8.53
2017-12-29T19:10:13.939Z,8.58
2017-12-29T19:12:42.644Z,8.51
2017-12-29T19:15:11.538Z,8.43
2017-12-29T19:17:40.224Z,8.51
2017-12-29T19:20:08.910Z,8.53
2017-12-29T19:22:37.594Z,8.58
2017-12-29T19:25:06.165Z,8.62
2017-12-29T19:27:34.908Z,8.70
2017-12-29T19:30:04.475Z,8.96
2017-12-29T19:32:33.119Z,9.10
2017-12-29T19:35:01.847Z,9.14
2017-12-29T19:37:30.939Z,9.02
2017-12-29T19:39:59.530Z,8.97
2017-12-29T19:42:28.095Z,9.14
2017-12-29T19:44:56.896Z,9.19
2017-12-29T19:47:25.583Z,9.12
2017-12-29T19:49:54.220Z,9.02
2017-12-29T19:52:23.691Z,9.11
2017-12-29T19:54:52.408Z,9.14
2017-12-29T19:57:21.140Z,9.08
2017-12-29T19:59:50.232Z,8.91
2017-12-29T20:02:18.926Z,8.90
2017-12-29T20:04:47.612Z,8.97
2017-12-29T20:07:16.496Z,8.96
2017-12-29T20:09:45.139Z,9.08
2017-12-29T20:12:13.769Z,9.15
2017-12-29T20:14:42.456Z,9.20
2017-12-29T20:17:11.141Z,9.23
2017-12-29T20:19:39.786Z,9.18
2017-12-29T20:22:08.778Z,9.15
2017-12-29T20:24:37.372Z,8.93
2017-12-29T20:27:06.094Z,8.92
2017-12-29T20:29:35.036Z,8.69
2017-12-29T20:32:04.486Z,8.67
2017-12-29T20:34:33.119Z,8.89
2017-12-29T20:37:02.668Z,8.82
2017-12-29T20:39:31.256Z,8.70
2017-12-29T20:41:59.843Z,8.72
2017-12-29T20:44:28.730Z,8.82
2017-12-29T20:46:57.302Z,8.78
2017-12-29T20:49:25.996Z,8.54
2017-12-29T20:51:54.967Z,8.63
2017-12-29T20:54:23.676Z,8.75
2017-12-29T20:56:52.328Z,8.56
2017-12-29T20:59:21.143Z,8.55
2017-12-29T21:01:49.844Z,8.43
2017-12-29T21:04:18.484Z,8.69
2017-12-29T21:06:48.199Z,8.63
2017-12-29T21:09:16.822Z,8.68
2017-12-29T21:11:45.508Z,8.69
2017-12-29T21:14:15.116Z,8.88
2017-12-29T21:16:43.803Z,8.71
2017-12-29T21:19:12.435Z,8.92
2017-12-29T21:21:41.985Z,8.70
2017-12-29T21:24:10.671Z,8.76
2017-12-29T21:26:39.316Z,8.76
2017-12-29T21:29:08.043Z,8.75
2017-12-29T21:31:36.735Z,8.76
2017-12-29T21:34:05.370Z,8.54
2017-12-29T21:36:34.100Z,8.72
2017-12-29T21:39:02.655Z,8.69
2017-12-29T21:41:31.373Z,8.67
2017-12-29T21:44:00.058Z,8.53
2017-12-29T21:46:28.745Z,8.49
2017-12-29T21:48:57.430Z,8.18
2017-12-29T21:51:26.115Z,8.33
2017-12-29T21:53:54.803Z,8.27
2017-12-29T21:56:23.494Z,8.20
2017-12-29T21:58:52.222Z,8.02
2017-12-29T22:01:21.682Z,7.80
2017-12-29T22:03:50.251Z,7.89
2017-12-29T22:06:19.225Z,7.99
2017-12-29T22:08:47.762Z,8.00
2017-12-29T22:11:16.524Z,8.04
2017-12-29T22:13:45.229Z,7.91
2017-12-29T22:16:13.896Z,7.95
2017-12-29T22:18:42.514Z,7.94
2017-12-29T22:21:11.270Z,7.88
2017-12-29T22:23:39.954Z,8.53
2017-12-29T22:26:08.593Z,8.67
2017-12-29T22:28:38.511Z,8.23
2017-12-29T22:31:07.239Z,7.97
2017-12-29T22:33:35.926Z,7.66
2017-12-29T22:36:04.908Z,7.36
2017-12-29T22:38:33.505Z,7.05
2017-12-29T22:41:02.949Z,7.61
2017-12-29T22:43:32.514Z,7.15
2017-12-29T22:46:01.198Z,6.95
2017-12-29T22:48:29.883Z,6.97
2017-12-29T22:50:58.568Z,7.13
2017-12-29T22:53:27.133Z,7.17
2017-12-29T22:55:55.844Z,7.16
2017-12-29T22:58:24.726Z,6.95
2017-12-29T23:00:53.392Z,7.20
2017-12-29T23:03:22.096Z,7.05
2017-12-29T23:05:51.090Z,7.07
2017-12-29T23:08:19.720Z,6.92
2017-12-29T23:10:49.185Z,6.99
2017-12-29T23:13:17.859Z,6.91
2017-12-29T23:15:46.557Z,6.95
2017-12-29T23:18:15.243Z,6.98
2017-12-29T23:20:43.984Z,6.90
2017-12-29T23:23:12.714Z,6.82
2017-12-29T23:25:41.400Z,6.83
2017-12-29T23:28:10.085Z,6.88
2017-12-29T23:30:38.649Z,6.81
2017-12-29T23:33:07.247Z,6.86
2017-12-29T23:35:36.142Z,6.81
2017-12-29T23:38:04.829Z,6.84
2017-12-29T23:40:33.576Z,6.81
2017-12-29T23:43:02.299Z,6.73
2017-12-29T23:45:30.938Z,6.69
2017-12-29T23:48:00.274Z,6.69
2017-12-29T23:50:29.080Z,6.51
2017-12-29T23:52:57.712Z,6.41
2017-12-29T23:55:27.166Z,6.32
2017-12-29T23:57:56.158Z,6.19
